Terminal Aerodrome Forecast
Issued by NWS

Home | Current Version | Previous Version | Text Only | Print | Product List | Glossary On
Versions: 1 2 3 4 5 6 7 8 9 10 11 12 13 14 15 16 17 18 19 20
000
FTUS41 KBTV 020800 AAB
TAFSLK
TAF AMD
KSLK 020839Z 0209/0306 00000KT 5SM BR SCT050
      TEMPO 0209/0211 1SM BR SCT005 BKN050
     FM021300 24008KT P6SM VCSH BKN030
     FM022100 23012KT 5SM -TSRA BKN035CB
     FM030000 26008KT P6SM BKN035=

USA.gov is the U.S. government's official web portal to all federal, state and local government web resources and services.